Time;durP1;ratioP1;P1;durP2;ratioP2;P2;SDS_P1;SDS_P2;PMS_P1;PMS_P2;Temp;Humidity;BMP_temperature;BMP_pressure;BME280_temperature;BME280_humidity;BME280_pressure;Samples;Min_cycle;Max_cycle;Signal;HPM_P1;HPM_P2
2022/10/28 00:00:34;;;;;;;22.88;14.57;;;;;;;17.92;71.00;101433.63;4910270;28;120586;-75
2022/10/28 00:03:00;;;;;;;20.50;14.85;;;;;;;17.89;71.09;101434.59;4927765;28;119840;-76
2022/10/28 00:05:27;;;;;;;21.42;14.50;;;;;;;17.88;71.14;101424.75;4910283;28;120324;-76
2022/10/28 00:07:53;;;;;;;22.48;15.55;;;;;;;17.85;71.25;101428.50;4928556;28;119919;-76
2022/10/28 00:10:19;;;;;;;20.65;15.38;;;;;;;17.82;71.33;101424.69;4928939;28;120012;-76
2022/10/28 00:12:44;;;;;;;23.70;15.15;;;;;;;17.68;71.47;101412.34;4910547;28;121260;-76
2022/10/28 00:15:10;;;;;;;26.95;15.23;;;;;;;17.79;71.14;101431.97;4934344;28;120286;-76
2022/10/28 00:17:36;;;;;;;21.50;15.43;;;;;;;17.76;71.32;101424.59;4940978;28;118577;-76
2022/10/28 00:20:03;;;;;;;23.23;15.40;;;;;;;17.74;71.50;101427.09;4922691;28;120619;-75
2022/10/28 00:22:29;;;;;;;25.73;15.82;;;;;;;17.72;71.27;101434.34;4927687;28;119456;-76
2022/10/28 00:24:54;;;;;;;25.02;16.08;;;;;;;17.69;71.27;101424.97;4926883;28;119967;-76
2022/10/28 00:27:20;;;;;;;25.20;15.73;;;;;;;17.67;71.29;101427.47;4919478;28;119723;-76
2022/10/28 00:29:46;;;;;;;27.30;15.65;;;;;;;17.66;71.42;101427.94;4924326;28;119983;-76
2022/10/28 00:32:11;;;;;;;26.52;15.70;;;;;;;17.61;71.28;101423.84;4927533;28;120174;-76
2022/10/28 00:34:37;;;;;;;24.95;16.58;;;;;;;17.61;71.32;101423.84;4940428;28;119624;-76
2022/10/28 00:37:03;;;;;;;27.38;17.48;;;;;;;17.58;71.31;101433.13;4914647;28;120109;-76
2022/10/28 00:39:28;;;;;;;24.70;16.23;;;;;;;17.55;71.45;101430.53;4914042;28;120625;-76
2022/10/28 00:41:57;;;;;;;23.92;16.52;;;;;;;17.52;71.28;101420.41;4934702;28;119433;-76
2022/10/28 00:44:38;;;;;;;25.40;16.35;;;;;;;17.49;71.21;101424.88;4913469;28;120208;-76
2022/10/28 00:47:09;;;;;;;31.15;17.23;;;;;;;17.46;71.35;101423.06;4925924;28;119586;-76
2022/10/28 00:49:34;;;;;;;24.75;16.17;;;;;;;17.41;71.42;101423.75;4914415;28;119586;-76
2022/10/28 00:52:07;;;;;;;27.08;17.20;;;;;;;17.39;71.35;101429.03;4922688;28;119462;-75
2022/10/28 00:54:34;;;;;;;22.05;16.30;;;;;;;17.37;71.22;101428.75;4920678;28;120126;-75
2022/10/28 00:57:03;;;;;;;27.63;17.58;;;;;;;17.34;71.43;101430.47;4914218;28;119932;-76
2022/10/28 00:59:33;;;;;;;27.48;17.35;;;;;;;17.33;71.23;101426.16;4930783;28;119954;-76
2022/10/28 01:02:18;;;;;;;30.63;17.52;;;;;;;17.30;71.13;101424.34;4912146;28;119585;-75
2022/10/28 01:04:46;;;;;;;27.63;16.77;;;;;;;17.27;71.02;101425.31;4934539;28;119978;-76
2022/10/28 01:07:12;;;;;;;25.77;16.70;;;;;;;17.24;71.09;101422.72;4914973;28;119679;-76
2022/10/28 01:09:39;;;;;;;26.60;18.02;;;;;;;17.22;71.09;101439.06;4938632;28;120110;-76
2022/10/28 01:12:20;;;;;;;29.20;17.80;;;;;;;17.16;71.00;101431.44;4929298;28;120259;-76
2022/10/28 01:15:15;;;;;;;25.30;18.65;;;;;;;17.12;70.95;101430.84;4913508;28;119934;-75
2022/10/28 01:18:09;;;;;;;26.13;18.02;;;;;;;17.07;70.74;101436.31;4914622;28;119584;-75
2022/10/28 01:20:56;;;;;;;33.72;18.92;;;;;;;17.03;70.93;101430.94;4920232;28;121322;-75
2022/10/28 01:23:39;;;;;;;24.95;18.42;;;;;;;17.00;71.04;101431.13;4931270;28;119659;-74
2022/10/28 01:26:29;;;;;;;32.22;19.50;;;;;;;16.91;71.06;101418.13;4911282;28;119506;-74
2022/10/28 01:29:19;;;;;;;29.38;19.52;;;;;;;16.94;71.26;101419.94;4923132;28;120608;-75
2022/10/28 01:31:57;;;;;;;34.03;20.95;;;;;;;16.92;71.54;101419.66;4913588;28;119542;-74
2022/10/28 01:34:23;;;;;;;36.75;21.13;;;;;;;16.90;71.49;101411.06;4907934;28;120722;-75
2022/10/28 01:37:00;;;;;;;31.48;20.27;;;;;;;16.91;71.39;101417.38;4929514;28;120235;-75
2022/10/28 01:39:47;;;;;;;36.88;21.73;;;;;;;16.89;71.56;101423.38;4927407;28;120032;-75
2022/10/28 01:42:28;;;;;;;28.88;19.40;;;;;;;16.86;71.36;101418.78;4911821;28;119420;-74
2022/10/28 01:44:59;;;;;;;30.15;19.90;;;;;;;16.83;71.32;101420.50;4924221;28;119550;-74
2022/10/28 01:47:30;;;;;;;31.00;20.05;;;;;;;16.81;71.11;101420.22;4917632;28;119698;-74
2022/10/28 01:50:11;;;;;;;28.35;20.52;;;;;;;16.79;71.22;101410.84;4917349;28;119963;-74
2022/10/28 01:52:43;;;;;;;36.92;21.85;;;;;;;16.79;71.63;101410.84;4928308;28;119495;-75
2022/10/28 01:55:24;;;;;;;40.95;23.10;;;;;;;16.77;71.42;101407.78;4912157;28;122603;-74
2022/10/28 01:58:04;;;;;;;38.28;24.25;;;;;;;16.77;71.83;101410.56;4930730;28;119486;-75
2022/10/28 02:00:33;;;;;;;38.42;22.85;;;;;;;16.77;71.97;101413.31;4930096;28;120559;-75
2022/10/28 02:03:07;;;;;;;39.38;23.60;;;;;;;16.76;71.88;101409.03;4930088;28;119825;-75
2022/10/28 02:05:51;;;;;;;36.45;24.17;;;;;;;16.76;71.90;101395.94;4928908;28;120180;-75
2022/10/28 02:08:16;;;;;;;34.63;22.10;;;;;;;16.76;71.99;101401.47;4930434;28;120006;-75
2022/10/28 02:11:13;;;;;;;30.88;19.40;;;;;;;16.75;71.87;101399.19;4912274;28;119521;-75
2022/10/28 02:13:45;;;;;;;30.67;19.23;;;;;;;16.71;71.44;101402.13;4920223;28;120227;-74
2022/10/28 02:16:40;;;;;;;27.55;19.00;;;;;;;16.64;71.27;101393.41;4911553;28;119823;-75
2022/10/28 02:19:11;;;;;;;;;;;;;;;16.62;71.22;101396.66;4924233;28;119811;-74
2022/10/28 02:22:01;;;;;;;41.85;24.63;;;;;;;16.63;71.85;101402.97;4918885;28;119684;-74
2022/10/28 02:24:51;;;;;;;43.33;25.10;;;;;;;16.62;71.86;101404.22;4929356;28;119596;-74
2022/10/28 02:27:38;;;;;;;42.92;25.98;;;;;;;16.62;71.92;101406.97;4906939;28;119534;-75
2022/10/28 02:30:08;;;;;;;48.38;27.45;;;;;;;16.60;72.01;101401.16;4929178;28;119875;-75
2022/10/28 02:32:40;;;;;;;33.92;21.25;;;;;;;16.62;72.06;101402.19;4928060;28;120547;-74
2022/10/28 02:35:32;;;;;;;34.47;20.90;;;;;;;16.60;71.78;101392.84;4922897;28;120370;-75
2022/10/28 02:38:03;;;;;;;31.15;19.48;;;;;;;16.57;71.42;101400.09;4923449;28;119533;-74
2022/10/28 02:40:31;;;;;;;30.85;19.55;;;;;;;16.54;71.36;101392.72;4930603;28;120279;-73
2022/10/28 02:43:01;;;;;;;36.60;22.35;;;;;;;16.51;71.41;101397.19;4934339;28;119907;-74
2022/10/28 02:45:38;;;;;;;39.53;24.35;;;;;;;16.51;71.60;101391.66;4917486;28;120548;-75
2022/10/28 02:48:09;;;;;;;37.85;23.23;;;;;;;16.50;71.51;101395.66;4912378;28;120058;-74
2022/10/28 02:50:48;;;;;;;39.05;23.40;;;;;;;16.47;71.49;101395.84;4926858;28;119675;-74
2022/10/28 02:53:19;;;;;;;37.40;23.13;;;;;;;16.44;71.29;101386.50;4925862;28;120147;-75
2022/10/28 02:55:50;;;;;;;35.22;23.15;;;;;;;16.40;71.10;101385.16;4925076;28;119977;-75
2022/10/28 02:58:16;;;;;;;43.72;26.65;;;;;;;16.41;71.39;101392.22;4937249;28;119895;-74
2022/10/28 03:00:45;;;;;;;50.10;30.02;;;;;;;16.41;71.87;101383.91;4900281;28;119898;-74
2022/10/28 03:03:11;;;;;;;53.55;31.67;;;;;;;16.43;72.04;101378.66;4917958;28;120344;-74
2022/10/28 03:05:37;;;;;;;52.08;31.70;;;;;;;16.46;72.16;101378.47;4935429;28;119837;-74
2022/10/28 03:08:03;;;;;;;48.47;30.13;;;;;;;16.48;72.12;101381.53;4917774;28;120004;-74
2022/10/28 03:10:28;;;;;;;51.22;30.35;;;;;;;16.48;72.24;101376.00;4902738;28;120414;-75
2022/10/28 03:12:54;;;;;;;48.38;29.65;;;;;;;16.49;72.12;101368.44;4907975;28;120338;-75
2022/10/28 03:15:20;;;;;;;52.28;31.10;;;;;;;16.47;72.05;101371.69;4924302;28;120172;-75
2022/10/28 03:17:45;;;;;;;52.63;30.67;;;;;;;16.51;72.04;101377.81;4907033;28;119916;-75
2022/10/28 03:20:11;;;;;;;50.95;30.00;;;;;;;16.52;72.14;101370.28;4923845;28;119974;-74
2022/10/28 03:22:37;;;;;;;50.15;30.77;;;;;;;16.50;72.21;101362.44;4930008;28;119558;-75
2022/10/28 03:25:03;;;;;;;53.60;31.77;;;;;;;16.52;72.13;101367.50;4923789;28;119734;-74
2022/10/28 03:27:28;;;;;;;51.42;30.30;;;;;;;16.51;72.51;101377.81;4924855;28;120552;-74
2022/10/28 03:29:54;;;;;;;52.25;32.70;;;;;;;16.51;72.04;101380.59;4923364;28;119460;-75
2022/10/28 03:32:20;;;;;;;53.13;32.55;;;;;;;16.51;72.41;101380.59;4921247;28;120327;-75
2022/10/28 03:34:46;;;;;;;57.55;32.90;;;;;;;16.50;72.43;101379.06;4923695;28;120665;-74
2022/10/28 03:37:13;;;;;;;57.30;32.35;;;;;;;16.48;72.46;101381.53;4922385;28;120222;-75
2022/10/28 03:39:41;;;;;;;56.85;32.08;;;;;;;16.50;72.57;101383.81;4923680;28;119641;-74
2022/10/28 03:42:07;;;;;;;56.20;32.50;;;;;;;16.47;72.39;101390.31;4909833;28;120363;-75
2022/10/28 03:44:32;;;;;;;54.40;33.28;;;;;;;16.50;72.44;101389.38;4926446;28;119949;-74
2022/10/28 03:46:58;;;;;;;57.10;34.10;;;;;;;16.46;72.65;101381.25;4908206;28;120402;-74
2022/10/28 03:49:24;;;;;;;59.78;34.60;;;;;;;16.47;72.44;101380.00;4921161;28;119835;-74
2022/10/28 03:51:56;;;;;;;60.67;35.83;;;;;;;16.45;72.33;101376.94;4912228;28;119842;-75
2022/10/28 03:54:22;;;;;;;60.22;35.17;;;;;;;16.46;72.33;101378.47;4923347;28;120231;-74
2022/10/28 03:56:48;;;;;;;58.20;35.25;;;;;;;16.41;72.46;101370.06;4916041;28;120096;-73
2022/10/28 03:59:13;;;;;;;62.42;36.63;;;;;;;16.45;72.79;101374.19;4923143;28;120033;-73
2022/10/28 04:01:39;;;;;;;69.88;37.90;;;;;;;16.45;72.82;101370.66;4924650;28;119884;-74
2022/10/28 04:04:05;;;;;;;69.65;36.80;;;;;;;16.45;72.76;101371.41;4923031;28;120097;-74
2022/10/28 04:06:30;;;;;;;61.30;36.80;;;;;;;16.45;72.47;101370.66;4928093;28;119999;-74
2022/10/28 04:08:56;;;;;;;61.80;37.47;;;;;;;16.44;72.85;101374.66;4925726;28;120302;-75
2022/10/28 04:11:25;;;;;;;63.10;36.85;;;;;;;16.45;72.99;101365.88;4922688;28;120301;-74
2022/10/28 04:13:51;;;;;;;62.55;38.45;;;;;;;16.45;72.80;101359.56;4908265;28;120043;-75
2022/10/28 04:16:16;;;;;;;64.30;38.15;;;;;;;16.50;72.99;101362.44;4927648;28;120194;-74
2022/10/28 04:18:42;;;;;;;62.85;37.70;;;;;;;16.52;72.89;101365.50;4926520;28;121052;-74
2022/10/28 04:21:08;;;;;;;61.95;38.35;;;;;;;16.53;72.86;101355.94;4925872;28;120124;-75
2022/10/28 04:24:00;;;;;;;62.85;38.00;;;;;;;16.54;72.82;101360.25;4907841;28;120112;-75
2022/10/28 04:26:25;;;;;;;66.35;39.42;;;;;;;16.56;72.82;101365.31;4917031;28;120435;-74
2022/10/28 04:28:51;;;;;;;66.57;39.53;;;;;;;16.56;73.17;101354.22;4927475;28;119965;-74
2022/10/28 04:31:17;;;;;;;66.50;39.72;;;;;;;16.61;73.28;101363.91;4912162;28;121202;-74
2022/10/28 04:33:42;;;;;;;65.45;39.75;;;;;;;16.64;73.40;101351.88;4913147;28;119914;-74
2022/10/28 04:36:08;;;;;;;66.20;40.58;;;;;;;16.69;73.44;101360.31;4927758;28;119926;-74
2022/10/28 04:38:34;;;;;;;76.60;41.55;;;;;;;16.69;73.32;101348.47;4922889;28;120339;-75
2022/10/28 04:41:00;;;;;;;68.50;40.70;;;;;;;16.72;73.36;101339.19;4926523;28;119660;-74
2022/10/28 04:43:25;;;;;;;71.28;40.22;;;;;;;16.78;73.25;101345.59;4927120;28;119874;-75
2022/10/28 04:45:51;;;;;;;61.95;39.65;;;;;;;16.80;73.27;101345.91;4904616;28;120104;-74
2022/10/28 04:48:17;;;;;;;72.65;40.72;;;;;;;16.83;73.20;101334.63;4911078;28;120191;-74
2022/10/28 04:50:44;;;;;;;64.38;37.50;;;;;;;16.86;73.03;101332.91;4908863;28;120131;-75
2022/10/28 04:53:11;;;;;;;64.13;38.10;;;;;;;16.87;73.21;101332.41;4908591;28;120200;-74
2022/10/28 04:55:37;;;;;;;65.05;38.15;;;;;;;16.90;73.09;101327.94;4924763;28;120447;-75
2022/10/28 04:58:17;;;;;;;64.45;39.20;;;;;;;16.93;73.06;101337.28;4922937;28;120144;-75
2022/10/28 05:00:43;;;;;;;59.90;37.92;;;;;;;16.93;73.12;101342.81;4909227;28;120450;-73
2022/10/28 05:03:09;;;;;;;64.38;37.45;;;;;;;16.97;73.11;101340.63;4908665;28;120715;-74
2022/10/28 05:05:34;;;;;;;62.20;37.33;;;;;;;16.98;72.86;101344.91;4924843;28;120102;-74
2022/10/28 05:08:02;;;;;;;62.75;38.00;;;;;;;17.00;72.93;101334.88;4925921;28;120429;-76
2022/10/28 05:10:29;;;;;;;66.05;39.17;;;;;;;16.99;73.15;101325.03;4930696;28;119838;-77
2022/10/28 05:12:54;;;;;;;68.53;38.90;;;;;;;17.00;72.92;101323.78;4923982;28;119589;-77
2022/10/28 05:15:21;;;;;;;64.70;40.53;;;;;;;16.98;72.91;101319.97;4923889;28;120123;-75
2022/10/28 05:17:47;;;;;;;67.55;39.85;;;;;;;16.99;72.73;101319.50;4920848;28;120254;-77
2022/10/28 05:20:16;;;;;;;65.15;40.22;;;;;;;17.03;72.95;101320.06;4920001;28;120012;-76
2022/10/28 05:22:51;;;;;;;65.97;39.55;;;;;;;17.03;73.11;101325.59;4911907;28;121112;-76
2022/10/28 05:25:17;;;;;;;68.20;40.05;;;;;;;17.05;73.07;101317.59;4922893;28;120662;-74
2022/10/28 05:27:43;;;;;;;64.00;38.53;;;;;;;17.07;72.86;101315.13;4926250;28;120245;-76
2022/10/28 05:30:10;;;;;;;70.15;41.58;;;;;;;17.08;72.81;101315.88;4926018;28;119971;-76
2022/10/28 05:32:35;;;;;;;68.18;39.75;;;;;;;17.05;73.01;101306.50;4930212;28;120189;-75
2022/10/28 05:35:02;;;;;;;66.50;41.67;;;;;;;17.10;73.17;101307.84;4911770;28;119812;-76
2022/10/28 05:37:27;;;;;;;68.25;41.13;;;;;;;17.09;73.03;101312.63;4898083;28;120687;-75
2022/10/28 05:39:53;;;;;;;64.03;39.33;;;;;;;17.10;73.08;101300.28;4907400;28;120649;-76
2022/10/28 05:42:19;;;;;;;63.47;39.75;;;;;;;17.11;73.10;101301.81;4925793;28;119983;-76
2022/10/28 05:44:45;;;;;;;65.57;40.38;;;;;;;17.13;73.11;101302.09;4925811;28;120319;-76
2022/10/28 05:47:10;;;;;;;63.38;39.55;;;;;;;17.15;72.94;101305.16;4905700;28;120384;-76
2022/10/28 05:49:36;;;;;;;68.60;40.67;;;;;;;17.11;72.84;101292.72;4925614;28;120019;-75
2022/10/28 05:52:02;;;;;;;66.13;41.13;;;;;;;17.12;73.09;101283.19;4924463;28;120260;-75
2022/10/28 05:54:53;;;;;;;64.50;40.72;;;;;;;17.13;73.12;101293.78;4916262;28;119779;-76
2022/10/28 05:57:19;;;;;;;66.70;40.08;;;;;;;17.19;73.08;101296.63;4925212;28;119999;-75
2022/10/28 05:59:45;;;;;;;68.82;39.95;;;;;;;17.19;73.08;101302.16;4903763;28;120274;-77
2022/10/28 06:02:13;;;;;;;71.47;40.47;;;;;;;17.23;73.08;101299.19;4924157;28;119818;-75
2022/10/28 06:04:40;;;;;;;63.08;39.58;;;;;;;17.18;73.19;101290.31;4922820;28;119975;-75
2022/10/28 06:07:06;;;;;;;59.35;38.30;;;;;;;17.24;73.20;101311.81;4925793;28;120020;-75
2022/10/28 06:09:31;;;;;;;57.50;37.53;;;;;;;17.26;73.03;101317.63;4916293;28;119585;-75
2022/10/28 06:11:58;;;;;;;58.22;37.75;;;;;;;17.24;72.95;101309.03;4925262;28;120344;-76
2022/10/28 06:14:24;;;;;;;66.50;37.58;;;;;;;17.24;72.81;101298.72;4925786;28;119963;-76
2022/10/28 06:16:50;;;;;;;64.50;37.72;;;;;;;17.31;72.83;101300.34;4916625;28;120590;-75
2022/10/28 06:19:16;;;;;;;58.85;37.88;;;;;;;17.27;72.84;101294.22;4926480;28;119840;-76
2022/10/28 06:21:41;;;;;;;65.43;39.30;;;;;;;17.30;72.91;101299.59;4925747;28;120018;-76
2022/10/28 06:24:07;;;;;;;64.90;39.05;;;;;;;17.32;72.87;101305.41;4917230;28;120941;-76
2022/10/28 06:26:33;;;;;;;64.22;38.88;;;;;;;17.31;73.13;101305.88;4925638;28;120427;-76
2022/10/28 06:28:59;;;;;;;63.42;38.22;;;;;;;17.33;72.91;101323.56;4910045;28;120577;-76
2022/10/28 06:31:25;;;;;;;59.30;36.92;;;;;;;17.32;72.92;101310.94;4906162;28;122637;-75
2022/10/28 06:33:50;;;;;;;57.75;37.33;;;;;;;17.37;72.95;101317.81;4925749;28;119839;-76
2022/10/28 06:36:16;;;;;;;64.18;36.95;;;;;;;17.38;72.95;101316.56;4909932;28;119871;-76
2022/10/28 06:38:42;;;;;;;62.00;37.47;;;;;;;17.38;73.15;101311.03;4927091;28;120060;-76
2022/10/28 06:41:07;;;;;;;58.47;36.45;;;;;;;17.40;72.94;101314.84;4904109;28;119770;-76
2022/10/28 06:43:33;;;;;;;55.75;35.55;;;;;;;17.43;72.92;101322.19;4922154;28;121762;-75
2022/10/28 06:46:04;;;;;;;54.40;35.42;;;;;;;17.46;72.83;101324.00;4921551;28;120011;-75
2022/10/28 06:48:30;;;;;;;54.42;36.20;;;;;;;17.46;72.22;101323.25;4918981;28;120030;-76
2022/10/28 06:50:57;;;;;;;56.50;35.17;;;;;;;17.48;72.30;101327.06;4918884;28;120395;-76
2022/10/28 06:53:23;;;;;;;61.40;35.55;;;;;;;17.46;72.35;101317.69;4920712;28;119801;-75
2022/10/28 06:55:58;;;;;;;51.13;33.80;;;;;;;17.46;72.14;101329.53;4929544;28;119647;-76
2022/10/28 06:58:24;;;;;;;57.20;34.47;;;;;;;17.44;72.06;101329.28;4927857;28;120692;-74
2022/10/28 07:00:50;;;;;;;57.47;35.13;;;;;;;17.40;72.08;101319.63;4919035;28;119621;-76
2022/10/28 07:03:20;;;;;;;55.55;34.53;;;;;;;17.45;71.91;101321.72;4901517;28;119992;-75
2022/10/28 07:05:50;;;;;;;59.13;36.30;;;;;;;17.46;72.22;101326.00;4917303;28;120244;-76
2022/10/28 07:08:16;;;;;;;60.35;36.33;;;;;;;17.47;72.37;101324.75;4904827;28;119634;-76
2022/10/28 07:10:42;;;;;;;57.55;36.03;;;;;;;17.49;72.39;101330.59;4920787;28;120129;-76
2022/10/28 07:13:07;;;;;;;56.25;34.97;;;;;;;17.52;72.20;101328.88;4920131;28;120333;-76
2022/10/28 07:15:33;;;;;;;57.30;36.13;;;;;;;17.51;72.28;101325.34;4908794;28;120538;-75
2022/10/28 07:18:00;;;;;;;56.42;36.53;;;;;;;17.52;72.39;101326.88;4900493;28;121173;-75
2022/10/28 07:20:26;;;;;;;59.42;35.08;;;;;;;17.58;72.24;101324.16;4910025;28;120882;-75
2022/10/28 07:22:57;;;;;;;57.33;33.40;;;;;;;17.58;72.24;101322.16;4892876;28;120881;-75
2022/10/28 07:25:23;;;;;;;55.65;35.90;;;;;;;17.58;71.93;101319.38;4917898;28;119696;-76
2022/10/28 07:27:48;;;;;;;58.85;35.65;;;;;;;17.57;71.85;101317.84;4917397;28;120204;-76
2022/10/28 07:30:14;;;;;;;59.13;35.90;;;;;;;17.58;72.06;101321.41;4920226;28;119591;-77
2022/10/28 07:32:39;;;;;;;62.20;37.72;;;;;;;17.65;72.26;101321.75;4917539;28;119866;-77
2022/10/28 07:35:05;;;;;;;57.63;36.15;;;;;;;17.69;72.27;101322.31;4901894;28;120240;-75
2022/10/28 07:37:31;;;;;;;63.60;35.42;;;;;;;17.72;72.13;101324.13;4917449;28;120655;-76
2022/10/28 07:39:57;;;;;;;58.30;35.25;;;;;;;17.80;72.38;101324.50;4918960;28;120064;-77
2022/10/28 07:42:22;;;;;;;60.45;36.67;;;;;;;17.85;72.53;101321.03;4922789;28;120119;-76
2022/10/28 07:44:48;;;;;;;61.13;35.50;;;;;;;17.92;72.47;101323.38;4921315;28;120105;-77
2022/10/28 07:47:15;;;;;;;61.40;36.45;;;;;;;17.99;72.76;101320.22;4920112;28;119716;-76
2022/10/28 07:49:41;;;;;;;63.88;36.83;;;;;;;18.06;72.86;101328.09;4902955;28;121226;-76
2022/10/28 07:52:07;;;;;;;65.28;36.13;;;;;;;18.14;73.11;101319.34;4920424;28;120085;-76
2022/10/28 07:54:33;;;;;;;60.13;36.28;;;;;;;18.17;72.80;101305.25;4920923;28;120286;-76
2022/10/28 07:56:59;;;;;;;57.60;35.42;;;;;;;18.28;72.82;101310.94;4919631;28;120278;-76
2022/10/28 07:59:24;;;;;;;59.80;34.70;;;;;;;18.38;72.99;101306.75;4922137;28;120344;-76
2022/10/28 08:01:56;;;;;;;60.47;34.47;;;;;;;18.47;72.71;101307.84;4902827;28;119975;-77
2022/10/28 08:04:21;;;;;;;56.47;34.60;;;;;;;18.54;72.93;101305.38;4924869;28;120731;-76
2022/10/28 08:06:47;;;;;;;60.10;34.15;;;;;;;18.63;72.63;101307.25;4916380;28;120359;-76
2022/10/28 08:09:13;;;;;;;59.17;34.88;;;;;;;18.70;72.58;101315.19;4920738;28;120181;-76
2022/10/28 08:11:38;;;;;;;59.10;32.75;;;;;;;18.68;72.27;101304.53;4917305;28;119905;-75
2022/10/28 08:14:04;;;;;;;50.50;31.80;;;;;;;18.79;72.33;101309.44;4920475;28;121130;-75
2022/10/28 08:16:33;;;;;;;50.72;31.38;;;;;;;18.83;72.21;101301.63;4919877;28;120386;-77
2022/10/28 08:18:58;;;;;;;49.00;31.15;;;;;;;18.87;72.44;101304.94;4902461;28;120201;-76
2022/10/28 08:21:25;;;;;;;51.03;31.02;;;;;;;18.87;72.15;101296.59;4921124;28;120358;-76
2022/10/28 08:23:53;;;;;;;54.70;30.88;;;;;;;18.96;71.98;101306.78;4919122;28;120208;-75
2022/10/28 08:26:19;;;;;;;48.88;29.38;;;;;;;18.99;72.17;101317.69;4923354;28;119830;-75
2022/10/28 08:28:45;;;;;;;53.13;29.92;;;;;;;19.04;72.23;101310.66;4919872;28;119720;-76
2022/10/28 08:31:13;;;;;;;54.78;30.25;;;;;;;19.09;72.07;101323.81;4920633;28;120164;-75
2022/10/28 08:33:44;;;;;;;49.35;29.65;;;;;;;19.15;72.09;101323.84;4901744;28;120392;-75
2022/10/28 08:36:15;;;;;;;44.25;27.63;;;;;;;19.19;72.20;101318.84;4919326;28;120537;-76
2022/10/28 08:39:07;;;;;;;46.97;27.40;;;;;;;19.25;72.21;101314.09;4907293;28;120756;-74
2022/10/28 08:41:43;;;;;;;44.47;26.65;;;;;;;19.32;71.55;101316.41;4912440;28;120266;-75
2022/10/28 08:44:33;;;;;;;43.83;25.23;;;;;;;19.38;71.85;101316.44;4918707;28;121291;-76
2022/10/28 08:47:25;;;;;;;38.88;24.38;;;;;;;19.45;71.60;101304.84;4920671;28;121285;-75
2022/10/28 08:49:55;;;;;;;42.72;24.90;;;;;;;19.50;71.91;101306.91;4922444;28;120331;-77
2022/10/28 08:52:31;;;;;;;42.55;24.70;;;;;;;19.53;71.46;101309.47;4919952;28;119942;-77
2022/10/28 08:54:59;;;;;;;38.33;23.23;;;;;;;19.58;71.48;101314.31;4922031;28;120855;-76
2022/10/28 08:57:39;;;;;;;38.15;23.80;;;;;;;19.62;71.28;101298.13;4922880;28;120527;-75
2022/10/28 09:00:08;;;;;;;38.28;24.20;;;;;;;19.69;71.37;101302.47;4922076;28;120727;-77
2022/10/28 09:02:50;;;;;;;41.65;23.67;;;;;;;19.73;71.34;101302.25;4922158;28;120015;-77
2022/10/28 09:05:21;;;;;;;39.67;23.65;;;;;;;19.82;70.89;101304.78;4925370;28;120577;-76
2022/10/28 09:07:47;;;;;;;35.58;22.83;;;;;;;19.91;71.39;101301.81;4924953;28;120286;-76
2022/10/28 09:10:15;;;;;;;34.92;22.00;;;;;;;20.00;70.85;101307.16;4926721;28;120769;-77
2022/10/28 09:13:01;;;;;;;33.78;22.38;;;;;;;20.07;70.78;101306.66;4923583;28;120680;-76
2022/10/28 09:15:29;;;;;;;34.92;20.08;;;;;;;20.18;70.33;101303.94;4921952;28;120827;-77
2022/10/28 09:18:16;;;;;;;32.78;20.77;;;;;;;20.23;70.23;101302.41;4905371;28;122337;-76
2022/10/28 09:20:53;;;;;;;37.50;20.25;;;;;;;20.26;70.22;101309.75;4922349;28;120913;-76
2022/10/28 09:23:29;;;;;;;26.85;18.42;;;;;;;20.23;69.52;101294.06;4923374;28;121073;-76
2022/10/28 09:26:24;;;;;;;29.63;19.08;;;;;;;20.22;69.71;101293.28;4904238;28;120637;-76
2022/10/28 09:29:24;;;;;;;31.48;19.38;;;;;;;20.19;69.55;101287.97;4902774;28;120781;-77
2022/10/28 09:32:16;;;;;;;32.10;18.52;;;;;;;20.21;69.06;101288.22;4922113;28;120195;-77
2022/10/28 09:34:51;;;;;;;27.65;17.80;;;;;;;20.21;69.29;101291.00;4891962;28;121116;-76
2022/10/28 09:37:27;;;;;;;30.90;18.17;;;;;;;20.22;69.41;101287.72;4922614;28;120767;-76
2022/10/28 09:40:25;;;;;;;32.35;17.52;;;;;;;20.21;69.30;101279.88;4920044;28;121275;-76
2022/10/28 09:43:19;;;;;;;30.17;17.90;;;;;;;20.28;68.94;101281.41;4921534;28;120800;-77
2022/10/28 09:45:47;;;;;;;32.20;17.80;;;;;;;20.30;69.14;101287.22;4905904;28;122451;-77
2022/10/28 09:48:19;;;;;;;24.83;15.70;;;;;;;20.32;69.24;101285.44;4906427;28;121202;-76
2022/10/28 09:51:32;;;;;;;25.70;16.30;;;;;;;20.36;69.32;101279.66;4922562;28;121825;-76
2022/10/28 09:53:59;;;;;;;24.02;15.25;;;;;;;20.32;69.38;101267.97;4922788;28;120720;-76
2022/10/28 09:56:43;;;;;;;24.05;16.50;;;;;;;20.44;68.89;101275.13;4895167;28;121458;-76
2022/10/28 09:59:29;;;;;;;24.65;14.77;;;;;;;20.47;69.38;101265.75;4911274;28;120617;-77
2022/10/28 10:02:28;;;;;;;27.35;16.65;;;;;;;20.50;68.92;101273.09;4860933;28;120981;-76
2022/10/28 10:04:56;;;;;;;25.92;15.55;;;;;;;20.51;69.01;101263.47;4899415;28;120965;-76
2022/10/28 10:07:37;;;;;;;29.25;16.33;;;;;;;20.49;68.93;101254.88;4905130;28;120981;-76
2022/10/28 10:10:25;;;;;;;22.45;15.35;;;;;;;20.57;68.98;101264.22;4921747;28;122111;-76
2022/10/28 10:12:56;;;;;;;25.52;15.50;;;;;;;20.61;69.20;101264.75;4905644;28;122158;-77
2022/10/28 10:15:55;;;;;;;27.65;14.73;;;;;;;20.65;68.91;101265.28;4922171;28;121351;-77
2022/10/28 10:18:25;;;;;;;23.27;14.77;;;;;;;20.67;68.92;101262.72;4871290;28;124355;-77
2022/10/28 10:21:11;;;;;;;26.50;14.45;;;;;;;20.68;68.53;101250.31;4905933;28;121612;-77
2022/10/28 10:23:37;;;;;;;24.60;12.82;;;;;;;20.75;68.70;101260.94;4905928;28;122811;-76
2022/10/28 10:26:15;;;;;;;21.38;13.70;;;;;;;20.77;68.63;101252.84;4902809;28;122335;-77
2022/10/28 10:28:47;;;;;;;24.08;14.82;;;;;;;20.75;68.48;101244.22;4920556;28;121377;-77
2022/10/28 10:31:38;;;;;;;26.17;14.40;;;;;;;20.79;68.14;101247.50;4915095;28;121554;-77
2022/10/28 10:34:13;;;;;;;25.00;13.38;;;;;;;20.84;68.20;101246.75;4921842;28;122729;-77
2022/10/28 10:36:48;;;;;;;21.85;11.80;;;;;;;20.90;67.74;101248.78;4920659;28;121763;-77
2022/10/28 10:39:25;;;;;;;24.30;11.80;;;;;;;20.89;68.21;101233.31;4922560;28;122212;-77
2022/10/28 10:41:53;;;;;;;23.02;11.77;;;;;;;20.92;68.11;101240.66;4919737;28;121785;-74
2022/10/28 10:44:19;;;;;;;25.92;11.80;;;;;;;20.92;67.50;101246.25;4901443;28;121497;-75
2022/10/28 10:46:53;;;;;;;19.25;10.70;;;;;;;20.92;67.32;101240.66;4918921;28;121970;-75
2022/10/28 10:49:28;;;;;;;21.23;11.43;;;;;;;20.92;67.26;101247.00;4914243;28;121621;-76
2022/10/28 10:51:59;;;;;;;20.10;11.70;;;;;;;20.91;67.48;101239.16;4890136;28;124748;-75
2022/10/28 10:54:29;;;;;;;19.98;11.10;;;;;;;20.95;67.75;101245.22;4920684;28;122012;-77
2022/10/28 10:57:08;;;;;;;24.70;11.75;;;;;;;20.95;67.41;101236.84;4917883;28;121392;-74
2022/10/28 10:59:39;;;;;;;23.77;12.57;;;;;;;20.95;66.90;101239.63;4920148;28;121703;-77
2022/10/28 11:02:25;;;;;;;18.48;11.32;;;;;;;20.96;67.65;101230.00;4910786;28;121317;-75
2022/10/28 11:04:54;;;;;;;19.70;11.95;;;;;;;20.98;67.12;101225.44;4904200;28;121392;-76
2022/10/28 11:07:19;;;;;;;20.58;11.98;;;;;;;21.02;67.51;101225.16;4901708;28;123084;-75
2022/10/28 11:10:19;;;;;;;22.30;11.75;;;;;;;21.12;67.46;101227.19;4912425;28;121972;-77
2022/10/28 11:12:57;;;;;;;21.23;11.73;;;;;;;21.17;67.17;101225.66;4885738;28;121881;-77
2022/10/28 11:15:25;;;;;;;19.58;11.13;;;;;;;21.19;67.43;101216.78;4922231;28;121305;-77
2022/10/28 11:18:02;;;;;;;26.65;10.93;;;;;;;21.22;66.73;101210.16;4913947;28;122472;-76
2022/10/28 11:20:42;;;;;;;19.23;10.32;;;;;;;21.24;66.43;101213.22;4919091;28;122592;-77